Estación de San Fernando

Ultimos registro cada 15 minutos 82
Estación Fecha / Hora Temperatura Humedad Lluvia Velocidad Dirección Radiación Presion
82 San Fernando 07-05-2026 20:15 10,1 79 0 0,4 255 0 1024,7
81 San Fernando 07-05-2026 20:00 10,1 80 0 0,9 247 0 1024,5
80 San Fernando 07-05-2026 19:45 10,1 79 0 0,9 226 0 1024
79 San Fernando 07-05-2026 19:30 9,9 81 0 0,9 305 0 1023,9
78 San Fernando 07-05-2026 19:15 9,9 81 0 0,4 218 0 1023,7
77 San Fernando 07-05-2026 19:00 10,1 81 0 0,9 169 0 1023,7
76 San Fernando 07-05-2026 18:45 10 81 0 0,4 209 0 1023,5
75 San Fernando 07-05-2026 18:30 10 81 0 3,6 209 0 1024,2
74 San Fernando 07-05-2026 18:15 10,1 83 0 0,9 233 0 1023,9
73 San Fernando 07-05-2026 18:00 10,1 85 0 1,8 220 0 1023,7
72 San Fernando 07-05-2026 17:45 10,3 84 0 1,3 209 0 1023,9
71 San Fernando 07-05-2026 17:30 10,4 85 0 0,9 204 14 1023,8
70 San Fernando 07-05-2026 17:15 10,7 85 0 3,6 193 19 1023,9
69 San Fernando 07-05-2026 17:00 10,9 86 0 1,8 247 37 1023,6
68 San Fernando 07-05-2026 16:45 11,2 84 0 0,9 220 63 1023,6
67 San Fernando 07-05-2026 16:30 11,4 83 0 1,3 180 88 1024
66 San Fernando 07-05-2026 16:15 11,8 84 0 2,2 200 111 1023,9
65 San Fernando 07-05-2026 16:00 12,1 83 0 1,8 245 84 1023,6
64 San Fernando 07-05-2026 15:45 12,4 81 0 0,9 258 274 1023,3
63 San Fernando 07-05-2026 15:30 12,9 80 0 0,4 239 311 1023,4
62 San Fernando 07-05-2026 15:15 13,4 78 0 1,3 221 346 1023,6
61 San Fernando 07-05-2026 15:00 13,7 74 0 1,8 187 371 1023,6
60 San Fernando 07-05-2026 14:45 14 72 0 1,3 240 390 1023,7
59 San Fernando 07-05-2026 14:30 13,7 72 0 1,3 204 413 1024
58 San Fernando 07-05-2026 14:15 13,7 74 0 1,3 214 424 1023,7
57 San Fernando 07-05-2026 14:00 13,4 77 0 1,8 214 459 1023,7
56 San Fernando 07-05-2026 13:45 12,9 78 0 0,9 204 476 1023,9
55 San Fernando 07-05-2026 13:30 12,5 79 0 0,4 283 489 1023,8
54 San Fernando 07-05-2026 13:15 12,2 82 0 1,3 164 485 1024,1
53 San Fernando 07-05-2026 13:00 11,7 81 0 0,9 246 508 1024,7
52 San Fernando 07-05-2026 12:45 11,3 83 0 2,2 187 512 1025
51 San Fernando 07-05-2026 12:30 11,5 83 0,3 3,6 239 519 1025,4
50 San Fernando 07-05-2026 12:15 11,2 83 0 1,8 274 515 1025,3
49 San Fernando 07-05-2026 12:00 11,2 83 0 1,8 222 533 1025,8
48 San Fernando 07-05-2026 11:45 11,1 82 0 3,1 229 545 1025,8
47 San Fernando 07-05-2026 11:30 11,1 84 0 0,4 244 519 1025,8
46 San Fernando 07-05-2026 11:15 11,1 85 0 0,4 253 418 1025,7
45 San Fernando 07-05-2026 11:00 10,7 85 0 0,9 241 373 1025,4
44 San Fernando 07-05-2026 10:45 10,7 85 0 1,8 204 199 1025,4
43 San Fernando 07-05-2026 10:30 10,6 85 0 0,4 204 197 1025,5
42 San Fernando 07-05-2026 10:15 10,6 86 0 0,4 204 167 1025,5
41 San Fernando 07-05-2026 10:00 10,3 86 0 0,4 183 257 1025,5
40 San Fernando 07-05-2026 09:45 9,9 89 0 0,9 214 346 1025,5
39 San Fernando 07-05-2026 09:30 9,2 90 0 0,9 179 292 1025,5
38 San Fernando 07-05-2026 09:15 9,2 89 0 1,8 204 67 1025,4
37 San Fernando 07-05-2026 09:00 9,3 90 0 1,3 195 95 1025,4
36 San Fernando 07-05-2026 08:45 9 91 0 1,3 199 105 1025,3
35 San Fernando 07-05-2026 08:30 8,9 91 0 0,4 192 44 1025,1
34 San Fernando 07-05-2026 08:15 8,8 92 0 2,7 204 39 1025
33 San Fernando 07-05-2026 08:00 8,7 92 0 0,9 266 26 1024,6
32 San Fernando 07-05-2026 07:45 8,6 92 0 0,9 264 7 1024,4
31 San Fernando 07-05-2026 07:30 8,5 91 0 0 220 0 1024,3
30 San Fernando 07-05-2026 07:15 8,6 91 0 1,3 233 0 1024,2
29 San Fernando 07-05-2026 07:00 8,6 91 0 0,4 224 0 1024,1
28 San Fernando 07-05-2026 06:45 8,7 91 0 1,3 214 0 1024
27 San Fernando 07-05-2026 06:30 8,8 91 0 1,3 241 0 1024,3
26 San Fernando 07-05-2026 06:15 8,8 91 0 0,9 191 0 1023,9
25 San Fernando 07-05-2026 06:00 8,9 91 0 1,8 227 0 1023,6
24 San Fernando 07-05-2026 05:45 8,9 91 0 0,9 204 0 1023,5
23 San Fernando 07-05-2026 05:30 8,9 91 0 2,2 226 0 1023,4
22 San Fernando 07-05-2026 05:15 8,9 91 0 0,9 240 0 1023,1
21 San Fernando 07-05-2026 05:00 9 90 0 0,9 231 0 1022,9
20 San Fernando 07-05-2026 04:45 9,1 90 0 0,9 239 0 1022,8
19 San Fernando 07-05-2026 04:30 9,1 90 0 0,4 200 0 1022,8
18 San Fernando 07-05-2026 04:15 9,2 91 0 0,9 225 0 1022,4
17 San Fernando 07-05-2026 04:00 9,3 91 0 0,4 226 0 1022,6
16 San Fernando 07-05-2026 03:45 9,3 91 0 0,4 227 0 1022,5
15 San Fernando 07-05-2026 03:30 9,3 91 0 1,3 209 0 1022,4
14 San Fernando 07-05-2026 03:15 9,3 91 0 0,9 197 0 1022,3
13 San Fernando 07-05-2026 03:00 9,3 95 0 1,3 214 0 1022,6
12 San Fernando 07-05-2026 02:45 9,4 91 0 0,9 190 0 1022,6
11 San Fernando 07-05-2026 02:30 9,4 91 0 0 214 0 1022,6
10 San Fernando 07-05-2026 02:15 9,6 92 0 1,3 224 0 1022,4
9 San Fernando 07-05-2026 02:00 9,7 93 0 0,9 253 0 1022,1
8 San Fernando 07-05-2026 01:45 9,9 94 0 0,4 218 0 1022,1
7 San Fernando 07-05-2026 01:30 9,9 94 0 0,9 226 0 1022
6 San Fernando 07-05-2026 01:15 9,9 93 0 0,4 248 0 1021,7
5 San Fernando 07-05-2026 01:00 9,8 93 0 0,4 247 0 1021,5
4 San Fernando 07-05-2026 00:45 9,8 93 0 0 225 0 1021,6
3 San Fernando 07-05-2026 00:30 9,9 93 0 0 246 0 1021,7
2 San Fernando 07-05-2026 00:15 10,1 92 0 0,9 231 0 1021,8
1 San Fernando 07-05-2026 00:00 10,3 93 0 0,9 218 0 1021,7